You are not logged in, Click here to log in
ICAO: RCKH Country: 中華民國高雄市小港區中山四路2號
Latitude: 22.5746 Longitude: 120.345
Total Arrivals: 440 Total Departures: 517
Latest Arrival: F8M63 (ZSAM-RCKH)CHU. CHUHAO Latest Departure: SQ7867 (RCKH-WSSS)Chun Tang. Chiang
Scenery:
METAR : RCKH 270430Z 25003KT 9999 FEW015 BKN035 BKN060 31/25 Q1004 NOSIG RMK A2965

高雄國際機場KHH